Time,TemperatureF,DewpointF,PressureIn,WindDirection,WindDirectionDegrees,WindSpeedMPH,WindSpeedGustMPH,Humidity,HourlyPrecipIn,Conditions,Clouds,dailyrainin,SolarRadiationWatts/m^2,SoftwareType,DateUTC
2013-02-17 00:01:00,42.0,37.0,-100.00,WSW,239,5.0,14.0,82,0.00,,,0.13,1.000000,,2013-02-17 08:01:00,
2013-02-17 00:32:00,42.0,36.0,-100.00,SW,227,5.0,14.0,80,0.00,,,0.13,1.000000,,2013-02-17 08:32:00,
2013-02-17 00:42:00,42.0,36.0,-100.00,SW,227,5.0,14.0,80,0.00,,,0.13,1.000000,,2013-02-17 08:42:00,
2013-02-17 00:52:00,42.0,36.0,-100.00,SW,227,5.0,14.0,80,0.00,,,0.13,1.000000,,2013-02-17 08:52:00,
2013-02-17 01:01:00,42.0,36.0,-100.00,SW,227,5.0,14.0,80,0.00,,,0.13,1.000000,,2013-02-17 09:01:00,
2013-02-17 01:32:00,42.0,36.0,-100.00,SW,228,4.0,11.0,79,0.00,,,-99.99,1.000000,,2013-02-17 09:32:00,
2013-02-17 01:42:00,42.0,36.0,-100.00,SW,228,4.0,11.0,79,0.00,,,-99.99,1.000000,,2013-02-17 09:42:00,
2013-02-17 01:52:00,42.0,36.0,-100.00,SW,228,4.0,11.0,79,0.00,,,-99.99,1.000000,,2013-02-17 09:52:00,
2013-02-17 02:01:00,42.0,36.0,-100.00,SW,228,4.0,11.0,79,0.00,,,-99.99,1.000000,,2013-02-17 10:01:00,
2013-02-17 02:32:00,40.0,36.0,-100.00,SW,219,4.0,12.0,84,0.00,,,0.13,1.000000,,2013-02-17 10:32:00,
2013-02-17 02:42:00,40.0,36.0,-100.00,SW,219,4.0,12.0,84,0.00,,,0.13,1.000000,,2013-02-17 10:42:00,
2013-02-17 02:52:00,40.0,36.0,-100.00,SW,219,4.0,12.0,84,0.00,,,0.13,1.000000,,2013-02-17 10:52:00,
2013-02-17 03:01:00,40.0,36.0,-100.00,SW,219,4.0,12.0,84,0.00,,,0.13,1.000000,,2013-02-17 11:01:00,
2013-02-17 03:32:00,40.0,36.0,-100.00,SW,216,6.0,12.0,85,0.00,,,0.13,1.000000,,2013-02-17 11:32:00,
2013-02-17 03:42:00,40.0,36.0,-100.00,SW,216,6.0,12.0,85,0.00,,,0.13,1.000000,,2013-02-17 11:42:00,
2013-02-17 03:52:00,40.0,36.0,-100.00,SW,216,6.0,12.0,85,0.00,,,0.13,1.000000,,2013-02-17 11:52:00,
2013-02-17 04:02:00,40.0,36.0,-100.00,SW,216,6.0,12.0,85,0.00,,,0.13,1.000000,,2013-02-17 12:02:00,
2013-02-17 04:32:00,40.0,36.0,-100.00,SW,235,4.0,12.0,85,0.00,,,0.13,1.000000,,2013-02-17 12:32:00,
2013-02-17 04:42:00,40.0,36.0,-100.00,SW,235,4.0,12.0,85,0.00,,,0.13,1.000000,,2013-02-17 12:42:00,
2013-02-17 04:52:00,40.0,36.0,-100.00,SW,235,4.0,12.0,85,0.00,,,0.13,1.000000,,2013-02-17 12:52:00,
2013-02-17 05:02:00,40.0,36.0,-100.00,SW,235,4.0,12.0,85,0.00,,,0.13,1.000000,,2013-02-17 13:02:00,
2013-02-17 06:32:00,39.0,35.0,-100.00,SW,225,5.0,12.0,85,-99.99,,,0.13,1.000000,,2013-02-17 14:32:00,
2013-02-17 06:42:00,39.0,35.0,-100.00,SW,225,5.0,12.0,85,-99.99,,,0.13,1.000000,,2013-02-17 14:42:00,
2013-02-17 06:53:00,39.0,35.0,-100.00,SW,225,5.0,12.0,85,-99.99,,,0.13,1.000000,,2013-02-17 14:53:00,
2013-02-17 07:01:00,39.0,35.0,-100.00,SW,225,5.0,12.0,85,-99.99,,,0.13,1.000000,,2013-02-17 15:01:00,
2013-02-17 07:32:00,37.0,34.0,-100.00,SSW,211,3.0,11.0,89,0.00,,,0.13,1.000000,,2013-02-17 15:32:00,
2013-02-17 07:42:00,37.0,34.0,-100.00,SSW,211,3.0,11.0,89,0.00,,,0.13,1.000000,,2013-02-17 15:42:00,
2013-02-17 07:52:00,37.0,34.0,-100.00,SSW,211,3.0,11.0,89,0.00,,,0.13,1.000000,,2013-02-17 15:52:00,
2013-02-17 08:01:00,37.0,34.0,-100.00,SSW,211,3.0,11.0,89,0.00,,,0.13,1.000000,,2013-02-17 16:01:00,
2013-02-17 08:32:00,39.0,34.0,-100.00,SW,232,3.0,7.0,83,0.00,,,0.13,19.000000,,2013-02-17 16:32:00,
2013-02-17 08:42:00,39.0,34.0,-100.00,SW,232,3.0,7.0,83,0.00,,,0.13,19.000000,,2013-02-17 16:42:00,
2013-02-17 08:52:00,39.0,34.0,-100.00,SW,232,3.0,7.0,83,0.00,,,0.13,19.000000,,2013-02-17 16:52:00,
2013-02-17 09:02:00,39.0,34.0,-100.00,SW,232,3.0,7.0,83,0.00,,,0.13,19.000000,,2013-02-17 17:02:00,
2013-02-17 09:32:00,41.0,35.0,-100.00,WSW,250,4.0,13.0,79,0.00,,,0.12,54.000000,,2013-02-17 17:32:00,
2013-02-17 09:42:00,41.0,35.0,-100.00,WSW,250,4.0,13.0,79,0.00,,,0.12,54.000000,,2013-02-17 17:42:00,
2013-02-17 09:52:00,41.0,35.0,-100.00,WSW,250,4.0,13.0,79,0.00,,,0.12,54.000000,,2013-02-17 17:52:00,
2013-02-17 10:01:00,41.0,35.0,-100.00,WSW,250,4.0,13.0,79,0.00,,,0.12,54.000000,,2013-02-17 18:01:00,
2013-02-17 10:33:00,42.0,36.0,-100.00,SW,226,5.0,11.0,79,0.00,,,0.11,127.000000,,2013-02-17 18:33:00,
2013-02-17 10:42:00,42.0,36.0,-100.00,SW,226,5.0,11.0,79,0.00,,,0.11,127.000000,,2013-02-17 18:42:00,
2013-02-17 10:52:00,42.0,36.0,-100.00,SW,226,5.0,11.0,79,0.00,,,0.11,127.000000,,2013-02-17 18:52:00,
2013-02-17 11:01:00,42.0,36.0,-100.00,SW,226,5.0,11.0,79,0.00,,,0.11,127.000000,,2013-02-17 19:01:00,
2013-02-17 11:32:00,44.0,36.0,-100.00,WSW,251,6.0,13.0,74,0.00,,,0.11,211.000000,,2013-02-17 19:32:00,
2013-02-17 11:42:00,44.0,36.0,-100.00,WSW,251,6.0,13.0,74,0.00,,,0.11,211.000000,,2013-02-17 19:42:00,
2013-02-17 11:52:00,44.0,36.0,-100.00,WSW,251,6.0,13.0,74,0.00,,,0.11,211.000000,,2013-02-17 19:52:00,
2013-02-17 12:01:00,44.0,36.0,-100.00,WSW,251,6.0,13.0,74,0.00,,,0.11,211.000000,,2013-02-17 20:01:00,
2013-02-17 12:32:00,45.0,36.0,-100.00,SW,235,5.0,9.0,70,0.00,,,0.10,231.000000,,2013-02-17 20:32:00,
2013-02-17 12:42:00,45.0,36.0,-100.00,SW,235,5.0,9.0,70,0.00,,,0.10,231.000000,,2013-02-17 20:42:00,
2013-02-17 12:52:00,45.0,36.0,-100.00,SW,235,5.0,9.0,70,0.00,,,0.10,231.000000,,2013-02-17 20:52:00,
2013-02-17 13:01:00,45.0,36.0,-100.00,SW,235,5.0,9.0,70,0.00,,,0.10,231.000000,,2013-02-17 21:01:00,
2013-02-17 13:32:00,45.0,34.0,-100.00,West,274,4.0,13.0,64,0.00,,,0.08,203.000000,,2013-02-17 21:32:00,
2013-02-17 13:42:00,45.0,34.0,-100.00,West,274,4.0,13.0,64,0.00,,,0.08,203.000000,,2013-02-17 21:42:00,
2013-02-17 13:53:00,45.0,34.0,-100.00,West,274,4.0,13.0,64,0.00,,,0.08,203.000000,,2013-02-17 21:53:00,
2013-02-17 14:01:00,45.0,34.0,-100.00,West,274,4.0,13.0,64,0.00,,,0.08,203.000000,,2013-02-17 22:01:00,
2013-02-17 14:32:00,45.0,34.0,-100.00,WSW,253,6.0,10.0,66,0.00,,,0.06,153.000000,,2013-02-17 22:32:00,
2013-02-17 14:42:00,45.0,34.0,-100.00,WSW,253,6.0,10.0,66,0.00,,,0.06,153.000000,,2013-02-17 22:42:00,
2013-02-17 14:52:00,45.0,34.0,-100.00,WSW,253,6.0,10.0,66,0.00,,,0.06,153.000000,,2013-02-17 22:52:00,
2013-02-17 15:01:00,45.0,34.0,-100.00,WSW,253,6.0,10.0,66,0.00,,,0.06,153.000000,,2013-02-17 23:01:00,
2013-02-17 15:32:00,44.0,34.0,-100.00,SW,223,3.0,9.0,67,0.00,,,0.00,97.000000,,2013-02-17 23:32:00,
2013-02-17 15:42:00,44.0,34.0,-100.00,SW,223,3.0,9.0,67,0.00,,,0.00,97.000000,,2013-02-17 23:42:00,
2013-02-17 15:52:00,44.0,34.0,-100.00,SW,223,3.0,9.0,67,0.00,,,0.00,97.000000,,2013-02-17 23:52:00,
2013-02-17 16:01:00,44.0,34.0,-100.00,SW,223,3.0,9.0,67,0.00,,,0.00,97.000000,,2013-02-18 00:01:00,
2013-02-17 16:32:00,45.0,34.0,-100.00,SW,231,4.0,8.0,65,0.00,,,0.00,72.000000,,2013-02-18 00:32:00,
2013-02-17 16:42:00,45.0,34.0,-100.00,SW,231,4.0,8.0,65,0.00,,,0.00,72.000000,,2013-02-18 00:42:00,
2013-02-17 16:52:00,45.0,34.0,-100.00,SW,231,4.0,8.0,65,0.00,,,0.00,72.000000,,2013-02-18 00:52:00,
2013-02-17 17:01:00,45.0,34.0,-100.00,SW,231,4.0,8.0,65,0.00,,,0.00,72.000000,,2013-02-18 01:01:00,
2013-02-17 18:32:00,40.0,35.0,-100.00,SSW,195,2.0,6.0,82,-99.99,,,0.00,4.000000,,2013-02-18 02:32:00,
2013-02-17 18:42:00,40.0,35.0,-100.00,SSW,195,2.0,6.0,82,-99.99,,,0.00,4.000000,,2013-02-18 02:42:00,
2013-02-17 18:52:00,40.0,35.0,-100.00,SSW,195,2.0,6.0,82,-99.99,,,0.00,4.000000,,2013-02-18 02:52:00,
2013-02-17 19:01:00,40.0,35.0,-100.00,SSW,195,2.0,6.0,82,-99.99,,,0.00,4.000000,,2013-02-18 03:01:00,
2013-02-17 19:32:00,36.0,33.0,-100.00,NE,41,2.0,4.0,87,0.00,,,0.00,1.000000,,2013-02-18 03:32:00,
2013-02-17 19:42:00,36.0,33.0,-100.00,NE,41,2.0,4.0,87,0.00,,,0.00,1.000000,,2013-02-18 03:42:00,
2013-02-17 19:52:00,36.0,33.0,-100.00,NE,41,2.0,4.0,87,0.00,,,0.00,1.000000,,2013-02-18 03:52:00,
2013-02-17 20:01:00,36.0,33.0,-100.00,NE,41,2.0,4.0,87,0.00,,,0.00,1.000000,,2013-02-18 04:01:00,
2013-02-17 20:32:00,36.0,33.0,-100.00,ENE,78,1.0,4.0,90,0.00,,,0.00,1.000000,,2013-02-18 04:32:00,
2013-02-17 20:42:00,36.0,33.0,-100.00,ENE,78,1.0,4.0,90,0.00,,,0.00,1.000000,,2013-02-18 04:42:00,
2013-02-17 20:52:00,36.0,33.0,-100.00,ENE,78,1.0,4.0,90,0.00,,,0.00,1.000000,,2013-02-18 04:52:00,
2013-02-17 21:01:00,36.0,33.0,-100.00,ENE,78,1.0,4.0,90,0.00,,,0.00,1.000000,,2013-02-18 05:01:00,
2013-02-17 21:32:00,35.0,32.0,-100.00,ESE,119,1.0,3.0,90,0.00,,,0.00,1.000000,,2013-02-18 05:32:00,
2013-02-17 21:42:00,35.0,32.0,-100.00,ESE,119,1.0,3.0,90,0.00,,,0.00,1.000000,,2013-02-18 05:42:00,
2013-02-17 21:52:00,35.0,32.0,-100.00,ESE,119,1.0,3.0,90,0.00,,,0.00,1.000000,,2013-02-18 05:52:00,
2013-02-17 22:02:00,35.0,32.0,-100.00,ESE,119,1.0,3.0,90,0.00,,,0.00,1.000000,,2013-02-18 06:02:00,
2013-02-17 23:32:00,34.0,32.0,-100.00,SSW,200,0.0,3.0,94,-99.99,,,0.00,1.000000,,2013-02-18 07:32:00,
2013-02-17 23:42:00,34.0,32.0,-100.00,SSW,200,0.0,3.0,94,-99.99,,,0.00,1.000000,,2013-02-18 07:42:00,
2013-02-17 23:52:00,34.0,32.0,-100.00,SSW,200,0.0,3.0,94,-99.99,,,0.00,1.000000,,2013-02-18 07:52:00,